Arthur, Canada
Current Conditions -  °F | °C
As of 11:00 AM on Sunday 23 Nov 2014 (Local Time) from CYKF Reporting Station
Haze Haze  
Wind Chill: 40°   Ceiling: 500
Heat Index: 45°   Visibility: 4mi
Dew Point: 43°   Wind: 9mph
Humidity: 93%   Direction: 190°S
Pressure: 29.98"   Gusts: NA
Location:  43.83°N, 80.53°W
Report Text: CYKF 231600Z AUTO 19008KT 4SM BR OVC005 07/06 A2998 RMK SLP158
Loading
Personal Weather Stations






























Interactive Weather Map New forecast layout! Learn more

10-Day Weather Forecast

Advertisements
Track Severe Weather on mobile